createdAt,value
2022-12-13T00:00:36.537Z,10.40
2022-12-13T00:03:22.960Z,10.30
2022-12-13T00:06:13.442Z,11.30
2022-12-13T00:09:00.893Z,10.47
2022-12-13T00:11:48.824Z,9.23
2022-12-13T00:14:35.785Z,9.03
2022-12-13T00:17:22.685Z,10.63
2022-12-13T00:20:09.988Z,11.10
2022-12-13T00:22:58.038Z,11.93
2022-12-13T00:25:44.767Z,12.97
2022-12-13T00:28:31.298Z,11.60
2022-12-13T00:34:25.672Z,11.33
2022-12-13T00:37:12.407Z,11.37
2022-12-13T00:40:00.614Z,10.97
2022-12-13T00:42:47.398Z,11.73
2022-12-13T00:45:34.416Z,11.77
2022-12-13T00:48:21.166Z,10.43
2022-12-13T00:51:08.782Z,10.53
2022-12-13T00:53:55.619Z,9.70
2022-12-13T00:56:43.575Z,9.27
2022-12-13T00:59:30.530Z,9.73
2022-12-13T01:02:16.901Z,8.60
2022-12-13T01:05:03.539Z,7.93
2022-12-13T01:07:50.323Z,8.70
2022-12-13T01:10:36.711Z,9.40
2022-12-13T01:13:24.463Z,8.67
2022-12-13T01:16:13.411Z,8.63
2022-12-13T01:19:00.347Z,8.07
2022-12-13T01:21:46.797Z,8.00
2022-12-13T01:24:33.785Z,7.87
2022-12-13T01:27:20.457Z,7.93
2022-12-13T01:30:09.144Z,9.00
2022-12-13T01:32:56.119Z,9.20
2022-12-13T01:35:42.589Z,7.33
2022-12-13T01:38:28.978Z,8.13
2022-12-13T01:41:18.272Z,7.93
2022-12-13T01:44:06.434Z,8.30
2022-12-13T01:46:55.148Z,8.00
2022-12-13T01:49:42.351Z,7.37
2022-12-13T01:52:31.307Z,7.60
2022-12-13T01:55:19.959Z,7.40
2022-12-13T01:58:07.554Z,7.90
2022-12-13T02:00:54.487Z,7.97
2022-12-13T02:03:43.047Z,7.27
2022-12-13T02:06:35.482Z,6.63
2022-12-13T02:09:22.730Z,7.30
2022-12-13T02:12:09.686Z,7.40
2022-12-13T02:14:56.737Z,7.33
2022-12-13T02:18:03.600Z,6.90
2022-12-13T02:21:04.958Z,6.77
2022-12-13T02:24:22.534Z,7.10
2022-12-13T02:27:14.540Z,6.73
2022-12-13T02:30:24.830Z,7.40
2022-12-13T02:33:36.839Z,7.37
2022-12-13T02:36:36.688Z,7.40
2022-12-13T02:39:30.624Z,6.93
2022-12-13T02:42:24.061Z,7.10
2022-12-13T02:45:20.300Z,7.53
2022-12-13T02:48:11.849Z,7.13
2022-12-13T02:51:00.687Z,7.00
2022-12-13T02:53:48.025Z,7.17
2022-12-13T02:56:34.598Z,7.27
2022-12-13T02:59:21.225Z,6.53
2022-12-13T03:02:30.930Z,7.13
2022-12-13T03:05:46.239Z,7.63
2022-12-13T03:08:40.669Z,7.87
2022-12-13T03:11:49.971Z,7.27
2022-12-13T03:14:40.560Z,6.30
2022-12-13T03:17:29.146Z,7.10
2022-12-13T03:20:22.787Z,7.53
2022-12-13T03:23:12.435Z,6.80
2022-12-13T03:26:04.113Z,7.07
2022-12-13T03:28:51.541Z,6.43
2022-12-13T03:31:38.092Z,7.50
2022-12-13T03:34:24.514Z,6.80
2022-12-13T03:37:10.881Z,6.73
2022-12-13T03:39:59.202Z,7.00
2022-12-13T03:42:45.708Z,6.63
2022-12-13T03:45:32.131Z,7.50
2022-12-13T03:48:22.773Z,6.63
2022-12-13T03:51:09.991Z,6.97
2022-12-13T03:53:56.429Z,7.07
2022-12-13T03:56:44.234Z,8.07
2022-12-13T03:59:30.947Z,7.40
2022-12-13T04:02:31.398Z,7.60
2022-12-13T04:05:18.557Z,7.57
2022-12-13T04:08:05.759Z,6.50
2022-12-13T04:11:23.129Z,7.83
2022-12-13T04:14:11.591Z,6.27
2022-12-13T04:16:58.445Z,8.10
2022-12-13T04:19:45.054Z,7.00
2022-12-13T04:22:31.419Z,6.77
2022-12-13T04:25:19.278Z,6.57
2022-12-13T04:28:06.191Z,6.97
2022-12-13T04:30:54.640Z,7.20
2022-12-13T04:33:41.045Z,5.83
2022-12-13T04:36:31.462Z,7.30
2022-12-13T04:39:21.897Z,6.77
2022-12-13T04:42:09.800Z,6.20
2022-12-13T04:44:56.304Z,6.67
2022-12-13T04:47:44.517Z,7.10
2022-12-13T04:50:31.259Z,7.67
2022-12-13T04:53:17.634Z,6.67
2022-12-13T04:56:04.565Z,7.63
2022-12-13T04:58:51.093Z,6.73
2022-12-13T05:01:37.485Z,6.47
2022-12-13T05:04:32.124Z,7.20
2022-12-13T05:07:19.165Z,8.67
2022-12-13T05:10:06.495Z,6.80
2022-12-13T05:12:53.104Z,7.50
2022-12-13T05:15:39.568Z,6.80
2022-12-13T05:18:26.609Z,7.43
2022-12-13T05:21:14.542Z,6.43
2022-12-13T05:24:00.900Z,6.47
2022-12-13T05:26:47.429Z,7.17
2022-12-13T05:29:34.062Z,7.13
2022-12-13T05:32:20.703Z,7.03
2022-12-13T05:35:08.446Z,6.90
2022-12-13T05:37:56.562Z,6.70
2022-12-13T05:40:43.480Z,6.83
2022-12-13T05:43:42.402Z,7.30
2022-12-13T05:46:41.506Z,7.37
2022-12-13T05:49:28.372Z,7.50
2022-12-13T05:52:18.840Z,6.87
2022-12-13T05:55:07.684Z,7.57
2022-12-13T05:57:54.501Z,7.13
2022-12-13T06:00:49.157Z,6.43
2022-12-13T06:03:36.121Z,7.47
2022-12-13T06:06:24.250Z,7.30
2022-12-13T06:09:10.725Z,7.27
2022-12-13T06:12:01.078Z,7.53
2022-12-13T06:14:48.261Z,6.83
2022-12-13T06:17:35.702Z,7.77
2022-12-13T06:20:24.749Z,7.50
2022-12-13T06:23:12.015Z,7.20
2022-12-13T06:25:58.826Z,6.13
2022-12-13T06:28:46.837Z,7.83
2022-12-13T06:31:33.826Z,7.47
2022-12-13T06:34:20.737Z,7.17
2022-12-13T06:37:08.854Z,8.80
2022-12-13T06:39:55.354Z,8.23
2022-12-13T06:42:41.883Z,7.57
2022-12-13T06:45:29.801Z,7.10
2022-12-13T06:48:20.192Z,7.20
2022-12-13T06:51:07.873Z,7.00
2022-12-13T06:53:54.745Z,7.77
2022-12-13T06:56:41.510Z,8.10
2022-12-13T06:59:28.296Z,8.60
2022-12-13T07:02:25.684Z,7.83
2022-12-13T07:05:12.654Z,7.90
2022-12-13T07:07:59.307Z,6.87
2022-12-13T07:10:46.283Z,7.93
2022-12-13T07:13:34.199Z,8.77
2022-12-13T07:16:21.318Z,8.73
2022-12-13T07:19:13.536Z,8.20
2022-12-13T07:22:11.211Z,7.77
2022-12-13T07:24:58.035Z,7.47
2022-12-13T07:27:44.588Z,7.90
2022-12-13T07:30:32.496Z,8.57
2022-12-13T07:33:22.766Z,8.07
2022-12-13T07:36:15.147Z,8.17
2022-12-13T07:39:01.452Z,8.00
2022-12-13T07:41:48.125Z,7.20
2022-12-13T07:44:34.875Z,9.27
2022-12-13T07:47:21.461Z,8.63
2022-12-13T07:50:24.423Z,8.20
2022-12-13T07:53:13.425Z,7.60
2022-12-13T07:56:02.582Z,8.13
2022-12-13T07:58:49.263Z,8.07
2022-12-13T08:01:36.111Z,8.60
2022-12-13T08:04:22.759Z,8.10
2022-12-13T08:07:09.818Z,8.23
2022-12-13T08:09:58.018Z,8.37
2022-12-13T08:12:44.745Z,8.33
2022-12-13T08:15:31.801Z,9.40
2022-12-13T08:18:18.291Z,9.13
2022-12-13T08:21:18.533Z,9.50
2022-12-13T08:24:15.804Z,7.97
2022-12-13T08:27:04.673Z,8.33
2022-12-13T08:29:51.206Z,9.27
2022-12-13T08:32:37.659Z,9.23
2022-12-13T08:35:24.667Z,9.30
2022-12-13T08:38:12.657Z,9.13
2022-12-13T08:41:00.202Z,9.10
2022-12-13T08:43:48.030Z,9.60
2022-12-13T08:46:34.745Z,9.20
2022-12-13T08:49:21.741Z,8.37
2022-12-13T08:52:09.240Z,9.33
2022-12-13T08:54:55.700Z,8.93
2022-12-13T08:57:43.889Z,10.00
2022-12-13T09:00:36.065Z,9.37
2022-12-13T09:03:23.561Z,8.53
2022-12-13T09:06:11.862Z,9.00
2022-12-13T09:08:58.404Z,10.30
2022-12-13T09:11:50.247Z,9.43
2022-12-13T09:14:46.640Z,9.07
2022-12-13T09:17:36.904Z,9.30
2022-12-13T09:20:29.177Z,9.60
2022-12-13T09:23:24.293Z,9.00
2022-12-13T09:26:15.014Z,9.00
2022-12-13T09:29:10.576Z,8.80
2022-12-13T09:31:58.085Z,9.93
2022-12-13T09:34:46.444Z,10.07
2022-12-13T09:37:33.461Z,9.93
2022-12-13T09:40:26.370Z,9.27
2022-12-13T09:43:22.941Z,11.97
2022-12-13T09:46:22.554Z,11.37
2022-12-13T09:49:22.592Z,10.00
2022-12-13T09:52:21.485Z,10.33
2022-12-13T09:55:20.346Z,10.33
2022-12-13T09:58:10.274Z,10.47
2022-12-13T10:00:57.653Z,10.73
2022-12-13T10:03:48.946Z,10.60
2022-12-13T10:06:38.659Z,10.47
2022-12-13T10:09:26.811Z,10.17
2022-12-13T10:12:16.470Z,9.67
2022-12-13T10:15:04.454Z,10.50
2022-12-13T10:17:55.716Z,10.07
2022-12-13T10:20:43.776Z,11.67
2022-12-13T10:23:42.600Z,10.43
2022-12-13T10:26:39.994Z,10.50
2022-12-13T10:29:26.963Z,11.10
2022-12-13T10:32:14.439Z,9.77
2022-12-13T10:35:01.470Z,10.63
2022-12-13T10:37:47.891Z,11.33
2022-12-13T10:40:36.831Z,11.23
2022-12-13T10:43:27.408Z,10.37
2022-12-13T10:46:25.296Z,9.60
2022-12-13T10:49:17.941Z,11.00
2022-12-13T10:52:05.287Z,10.23
2022-12-13T10:54:52.655Z,10.20
2022-12-13T10:57:52.516Z,11.60
2022-12-13T11:00:42.969Z,10.80
2022-12-13T11:03:32.394Z,11.27
2022-12-13T11:06:19.072Z,11.27
2022-12-13T11:09:22.832Z,10.87
2022-12-13T11:12:16.315Z,12.20
2022-12-13T11:15:06.277Z,11.70
2022-12-13T11:17:57.829Z,12.60
2022-12-13T11:20:54.531Z,11.77
2022-12-13T11:23:46.110Z,11.97
2022-12-13T11:26:35.405Z,11.97
2022-12-13T11:29:43.014Z,11.03
2022-12-13T11:32:42.736Z,11.93
2022-12-13T11:35:49.789Z,11.00
2022-12-13T11:38:57.624Z,13.17
2022-12-13T11:41:50.185Z,13.00
2022-12-13T11:44:47.844Z,14.30
2022-12-13T11:47:40.391Z,13.07
2022-12-13T11:50:33.360Z,11.37
2022-12-13T11:53:28.053Z,11.17
2022-12-13T11:56:20.713Z,13.07
2022-12-13T11:59:24.322Z,13.10
2022-12-13T12:02:20.296Z,13.07
2022-12-13T12:05:16.653Z,21.70
2022-12-13T12:11:27.523Z,11.53
2022-12-13T12:14:20.294Z,10.57
2022-12-13T12:17:07.229Z,12.67
2022-12-13T12:19:56.821Z,11.10
2022-12-13T12:22:51.385Z,11.13
2022-12-13T12:25:47.467Z,10.07
2022-12-13T12:28:47.798Z,11.20
2022-12-13T12:31:50.851Z,13.10
2022-12-13T12:34:50.014Z,10.87
2022-12-13T12:37:48.434Z,11.33
2022-12-13T12:41:16.109Z,11.10
2022-12-13T12:44:14.185Z,12.93
2022-12-13T12:47:38.233Z,11.00
2022-12-13T12:50:27.280Z,9.97
2022-12-13T12:53:30.164Z,12.33
2022-12-13T12:56:35.761Z,12.50
2022-12-13T12:59:32.142Z,12.03
2022-12-13T13:02:25.159Z,11.53
2022-12-13T13:05:18.866Z,10.67
2022-12-13T13:08:11.715Z,10.07
2022-12-13T13:11:01.994Z,11.80
2022-12-13T13:14:02.429Z,11.00
2022-12-13T13:16:49.306Z,11.07
2022-12-13T13:19:45.548Z,12.57
2022-12-13T13:22:34.958Z,11.53
2022-12-13T13:25:33.101Z,12.60
2022-12-13T13:28:22.656Z,10.97
2022-12-13T13:31:11.052Z,10.80
2022-12-13T13:33:58.322Z,11.80
2022-12-13T13:36:48.245Z,10.30
2022-12-13T13:39:57.356Z,11.87
2022-12-13T13:43:14.102Z,11.73
2022-12-13T13:46:10.939Z,12.57
2022-12-13T13:49:04.731Z,12.83
2022-12-13T13:52:26.400Z,11.37
2022-12-13T13:55:44.849Z,10.90
2022-12-13T13:58:58.119Z,16.48
2022-12-13T14:02:19.578Z,12.37
2022-12-13T14:05:50.311Z,11.17
2022-12-13T14:08:48.457Z,11.67
2022-12-13T14:12:12.994Z,10.70
2022-12-13T14:15:37.400Z,11.07
2022-12-13T14:19:08.958Z,10.83
2022-12-13T14:22:10.162Z,11.03
2022-12-13T14:25:25.317Z,10.97
2022-12-13T14:28:20.352Z,10.73
2022-12-13T14:31:21.639Z,11.80
2022-12-13T14:34:09.526Z,17.13
2022-12-13T14:36:58.347Z,10.97
2022-12-13T14:39:47.198Z,14.02
2022-12-13T14:42:36.098Z,11.93
2022-12-13T14:45:26.151Z,10.77
2022-12-13T14:48:28.027Z,11.33
2022-12-13T14:51:32.062Z,10.83
2022-12-13T14:54:26.174Z,10.73
2022-12-13T14:57:18.431Z,9.60
2022-12-13T15:00:24.139Z,11.13
2022-12-13T15:03:22.676Z,10.30
2022-12-13T15:06:09.582Z,10.50
2022-12-13T15:08:56.127Z,10.57
2022-12-13T15:11:43.443Z,10.37
2022-12-13T15:14:39.790Z,17.40
2022-12-13T15:17:29.765Z,14.13
2022-12-13T15:20:27.792Z,12.67
2022-12-13T15:23:22.742Z,10.50
2022-12-13T15:26:13.088Z,11.07
2022-12-13T15:29:19.790Z,11.77
2022-12-13T15:32:14.063Z,10.73
2022-12-13T15:35:16.522Z,11.27
2022-12-13T15:38:03.333Z,9.83
2022-12-13T15:40:50.645Z,10.43
2022-12-13T15:43:44.623Z,10.93
2022-12-13T15:46:33.616Z,11.13
2022-12-13T15:49:35.249Z,11.77
2022-12-13T15:52:31.968Z,12.50
2022-12-13T15:55:28.789Z,11.43
2022-12-13T15:58:26.749Z,11.73
2022-12-13T16:01:27.135Z,11.80
2022-12-13T16:04:24.821Z,11.13
2022-12-13T16:07:23.977Z,11.63
2022-12-13T16:10:19.801Z,11.97
2022-12-13T16:13:08.441Z,12.00
2022-12-13T16:16:00.543Z,12.53
2022-12-13T16:18:57.784Z,13.67
2022-12-13T16:21:45.531Z,13.03
2022-12-13T16:24:32.371Z,12.53
2022-12-13T16:27:18.949Z,11.63
2022-12-13T16:30:13.456Z,11.53
2022-12-13T16:33:18.569Z,11.97
2022-12-13T16:36:06.162Z,11.43
2022-12-13T16:38:54.008Z,10.97
2022-12-13T16:41:44.002Z,10.77
2022-12-13T16:44:35.828Z,11.30
2022-12-13T16:47:33.731Z,11.63
2022-12-13T16:50:25.971Z,10.70
2022-12-13T16:53:17.159Z,11.10
2022-12-13T16:56:05.823Z,10.03
2022-12-13T16:58:52.213Z,10.30
2022-12-13T17:01:39.079Z,11.83
2022-12-13T17:04:27.175Z,11.60
2022-12-13T17:07:14.239Z,11.20
2022-12-13T17:10:01.277Z,10.97
2022-12-13T17:12:49.138Z,11.30
2022-12-13T17:15:35.743Z,11.37
2022-12-13T17:18:22.606Z,10.77
2022-12-13T17:21:10.459Z,12.07
2022-12-13T17:23:57.000Z,12.90
2022-12-13T17:26:54.663Z,12.37
2022-12-13T17:29:43.589Z,13.10
2022-12-13T17:32:30.101Z,12.43
2022-12-13T17:35:18.566Z,11.63
2022-12-13T17:38:05.173Z,12.67
2022-12-13T17:40:54.813Z,11.93
2022-12-13T17:43:42.504Z,12.57
2022-12-13T17:46:31.280Z,11.80
2022-12-13T17:49:17.966Z,12.07
2022-12-13T17:52:04.743Z,11.50
2022-12-13T17:54:51.798Z,12.00
2022-12-13T17:57:38.365Z,11.20
2022-12-13T18:00:24.891Z,12.27
2022-12-13T18:03:12.820Z,12.20
2022-12-13T18:06:00.437Z,12.90
2022-12-13T18:08:48.287Z,12.10
2022-12-13T18:11:35.787Z,11.83
2022-12-13T18:14:22.763Z,12.30
2022-12-13T18:17:09.209Z,11.57
2022-12-13T18:19:57.119Z,12.37
2022-12-13T18:22:46.984Z,12.90
2022-12-13T18:25:38.530Z,14.50
2022-12-13T18:28:25.308Z,14.30
2022-12-13T18:31:14.189Z,13.83
2022-12-13T18:34:01.370Z,14.17
2022-12-13T18:36:49.604Z,13.37
2022-12-13T18:39:36.236Z,13.77
2022-12-13T18:42:22.783Z,14.40
2022-12-13T18:45:09.842Z,13.07
2022-12-13T18:47:57.129Z,13.73
2022-12-13T18:50:48.616Z,12.57
2022-12-13T18:53:37.786Z,13.37
2022-12-13T18:56:25.854Z,14.87
2022-12-13T18:59:12.669Z,18.10
2022-12-13T19:01:59.303Z,18.97
2022-12-13T19:04:55.184Z,19.60
2022-12-13T19:07:42.767Z,17.37
2022-12-13T19:10:30.675Z,17.53
2022-12-13T19:13:17.539Z,16.90
2022-12-13T19:16:07.451Z,15.47
2022-12-13T19:18:54.767Z,14.87
2022-12-13T19:21:41.297Z,13.53
2022-12-13T19:24:28.166Z,13.63
2022-12-13T19:27:16.400Z,16.60
2022-12-13T19:30:03.088Z,15.23
2022-12-13T19:32:49.602Z,15.53
2022-12-13T19:35:36.194Z,15.70
2022-12-13T19:38:22.673Z,13.33
2022-12-13T19:41:10.266Z,14.43
2022-12-13T19:43:58.770Z,15.83
2022-12-13T19:46:45.439Z,14.00
2022-12-13T19:49:31.876Z,13.93
2022-12-13T19:52:18.418Z,14.73
2022-12-13T19:55:05.657Z,17.37
2022-12-13T19:57:52.707Z,16.53
2022-12-13T20:00:41.041Z,15.23
2022-12-13T20:03:28.177Z,15.87
2022-12-13T20:06:17.139Z,17.47
2022-12-13T20:09:03.612Z,18.73
2022-12-13T20:11:50.174Z,17.60
2022-12-13T20:14:36.679Z,20.23
2022-12-13T20:17:24.471Z,20.17
2022-12-13T20:20:12.408Z,18.73
2022-12-13T20:22:58.944Z,17.43
2022-12-13T20:25:45.579Z,14.73
2022-12-13T20:28:34.275Z,13.40
2022-12-13T20:31:22.585Z,14.77
2022-12-13T20:34:14.369Z,12.83
2022-12-13T20:37:01.072Z,12.57
2022-12-13T20:39:47.512Z,15.17
2022-12-13T20:42:34.355Z,13.87
2022-12-13T20:45:21.120Z,12.23
2022-12-13T20:48:07.914Z,13.17
2022-12-13T20:51:01.678Z,9.80
2022-12-13T20:53:50.028Z,9.43
2022-12-13T20:56:38.582Z,8.77
2022-12-13T20:59:25.095Z,7.80
2022-12-13T21:02:11.860Z,6.77
2022-12-13T21:04:58.625Z,8.00
2022-12-13T21:08:04.159Z,7.27
2022-12-13T21:10:50.787Z,7.73
2022-12-13T21:13:37.341Z,7.40
2022-12-13T21:16:25.270Z,7.63
2022-12-13T21:19:14.206Z,6.73
2022-12-13T21:22:00.631Z,6.80
2022-12-13T21:24:48.532Z,6.70
2022-12-13T21:27:35.471Z,8.30
2022-12-13T21:30:22.315Z,8.63
2022-12-13T21:33:09.186Z,9.50
2022-12-13T21:35:56.689Z,8.80
2022-12-13T21:38:44.192Z,8.10
2022-12-13T21:41:32.247Z,8.63
2022-12-13T21:44:20.538Z,9.20
2022-12-13T21:47:12.394Z,8.50
2022-12-13T21:49:59.552Z,9.97
2022-12-13T21:52:49.648Z,10.30
2022-12-13T21:55:43.589Z,10.97
2022-12-13T21:58:49.078Z,11.10
2022-12-13T22:01:49.886Z,10.20
2022-12-13T22:04:38.185Z,10.00
2022-12-13T22:07:27.026Z,10.00
2022-12-13T22:10:13.669Z,10.97
2022-12-13T22:13:00.086Z,11.17
2022-12-13T22:15:48.075Z,9.37
2022-12-13T22:18:34.910Z,9.23
2022-12-13T22:21:21.889Z,9.57
2022-12-13T22:24:09.583Z,10.47
2022-12-13T22:26:56.225Z,9.80
2022-12-13T22:29:42.782Z,12.50
2022-12-13T22:32:33.952Z,11.53
2022-12-13T22:35:20.647Z,12.03
2022-12-13T22:38:07.163Z,12.03
2022-12-13T22:40:53.502Z,11.10
2022-12-13T22:43:39.983Z,10.67
2022-12-13T22:46:26.890Z,10.10
2022-12-13T22:49:15.586Z,9.73
2022-12-13T22:52:02.172Z,9.80
2022-12-13T22:54:48.802Z,9.03
2022-12-13T22:57:35.351Z,9.80
2022-12-13T23:00:21.860Z,10.63
2022-12-13T23:03:08.686Z,9.67
2022-12-13T23:05:56.516Z,10.03
2022-12-13T23:08:45.766Z,8.87
2022-12-13T23:11:50.250Z,8.13
2022-12-13T23:14:37.345Z,9.23
2022-12-13T23:17:24.017Z,8.97
2022-12-13T23:20:11.783Z,8.80
2022-12-13T23:22:59.797Z,8.53
2022-12-13T23:25:48.912Z,8.90
2022-12-13T23:28:36.191Z,8.57
2022-12-13T23:31:23.439Z,8.60
2022-12-13T23:34:10.742Z,8.03
2022-12-13T23:36:57.249Z,9.10
2022-12-13T23:39:45.093Z,9.43
2022-12-13T23:42:31.828Z,7.67
2022-12-13T23:45:18.419Z,8.10
2022-12-13T23:48:04.928Z,7.70
2022-12-13T23:50:51.806Z,9.10
2022-12-13T23:53:38.922Z,9.80
2022-12-13T23:56:27.470Z,8.17
2022-12-13T23:59:14.175Z,8.70
